Time;durP1;ratioP1;P1;durP2;ratioP2;P2;SDS_P1;SDS_P2;PMS_P1;PMS_P2;Temp;Humidity;BMP_temperature;BMP_pressure;BME280_temperature;BME280_humidity;BME280_pressure;Samples;Min_cycle;Max_cycle;Signal;HPM_P1;HPM_P2
2022/09/24 00:01:34;;;;;;;10.68;9.65;;;;;;;20.32;59.11;100468.56;6157008;23;20021;-75
2022/09/24 00:04:04;;;;;;;11.00;9.90;;;;;;;20.26;59.40;100466.28;6156395;23;20028;-77
2022/09/24 00:06:39;;;;;;;11.57;10.70;;;;;;;20.41;59.83;100461.97;6155596;23;20017;-75
2022/09/24 00:09:07;;;;;;;10.95;10.05;;;;;;;20.61;59.69;100465.97;6156044;23;20025;-72
2022/09/24 00:11:34;;;;;;;10.30;9.60;;;;;;;20.33;59.07;100418.34;6156055;23;20025;-73
2022/09/24 00:14:01;;;;;;;10.45;9.73;;;;;;;20.50;59.64;100445.69;6155710;23;20017;-74
2022/09/24 00:16:31;;;;;;;11.70;10.20;;;;;;;20.50;59.29;100457.91;6155427;23;20061;-74
2022/09/24 00:19:00;;;;;;;11.25;10.35;;;;;;;20.29;59.38;100434.41;6156263;23;20028;-77
2022/09/24 00:21:29;;;;;;;11.25;10.15;;;;;;;20.41;59.79;100445.81;6155158;23;20022;-86
2022/09/24 00:24:03;;;;;;;10.45;9.70;;;;;;;20.50;59.62;100438.03;6155078;23;20022;-78
2022/09/24 00:29:20;;;;;;;11.75;10.65;;;;;;;20.88;59.84;100451.13;6154946;23;20045;-85
2022/09/24 00:31:49;;;;;;;19.40;12.73;;;;;;;21.17;59.61;100444.41;6153759;23;20032;-74
2022/09/24 00:34:17;;;;;;;10.73;9.82;;;;;;;21.34;59.01;100449.06;6153065;23;20360;-74
2022/09/24 00:36:45;;;;;;;11.15;10.02;;;;;;;21.41;58.91;100451.28;6153170;23;20021;-74
2022/09/24 00:39:13;;;;;;;10.90;9.45;;;;;;;21.34;59.00;100417.81;6153220;23;20022;-77
2022/09/24 00:41:46;;;;;;;18.23;13.20;;;;;;;21.86;58.53;100451.09;6152755;23;20817;-79
2022/09/24 00:44:44;;;;;;;25.88;17.10;;;;;;;22.05;57.55;100458.97;6154075;23;20080;-73
2022/09/24 00:47:50;;;;;;;15.52;13.88;;;;;;;21.88;57.26;100428.81;6155458;23;20028;-74
2022/09/24 00:50:29;;;;;;;13.73;11.70;;;;;;;21.40;57.48;100410.72;6151772;23;20021;-74
2022/09/24 00:52:58;;;;;;;18.02;13.50;;;;;;;21.39;57.79;100451.63;6155228;23;20021;-74
2022/09/24 00:55:27;;;;;;;15.68;13.80;;;;;;;21.27;57.73;100455.28;6153388;23;20040;-74
2022/09/24 00:57:59;;;;;;;16.33;13.77;;;;;;;21.18;57.37;100439.56;6153295;23;20031;-74
2022/09/24 01:00:26;;;;;;;15.68;14.15;;;;;;;20.94;57.51;100418.47;6153397;23;20028;-74
2022/09/24 01:03:00;;;;;;;15.52;13.93;;;;;;;20.91;57.94;100427.72;6153541;23;20096;-76
2022/09/24 01:05:27;;;;;;;15.15;13.75;;;;;;;20.78;57.97;100420.34;6153756;23;20032;-77
2022/09/24 01:07:54;;;;;;;18.88;14.38;;;;;;;20.65;58.11;100432.88;6154536;23;20021;-70
2022/09/24 01:10:49;;;;;;;17.15;14.75;;;;;;;20.64;58.35;100431.22;6152237;23;20456;-70
2022/09/24 01:13:29;;;;;;;14.00;12.77;;;;;;;20.76;58.25;100456.78;6150813;23;20092;-78
2022/09/24 01:16:08;;;;;;;12.40;11.47;;;;;;;20.52;58.26;100426.34;6153857;23;20021;-74
2022/09/24 01:18:56;;;;;;;;;;;;;;;20.41;58.39;100445.81;6153768;23;20100;-74
2022/09/24 01:21:38;;;;;;;12.00;11.02;;;;;;;20.28;58.49;100415.75;6148146;23;19927;-72
2022/09/24 01:24:23;;;;;;;12.07;11.23;;;;;;;20.39;58.70;100448.16;6152309;23;20026;-77
2022/09/24 01:27:00;;;;;;;13.40;11.95;;;;;;;20.11;58.60;100403.38;6153576;23;20017;-74
2022/09/24 01:29:40;;;;;;;12.45;11.38;;;;;;;20.15;58.71;100414.03;6153275;23;20031;-75
2022/09/24 01:32:18;;;;;;;12.50;11.43;;;;;;;20.16;58.75;100416.50;6152679;23;20034;-75
2022/09/24 01:35:00;;;;;;;11.43;10.73;;;;;;;20.05;58.87;100418.13;6154284;23;20330;-74
2022/09/24 01:37:32;;;;;;;12.10;11.23;;;;;;;19.97;59.01;100408.53;6151885;23;20018;-73
2022/09/24 01:40:02;;;;;;;12.00;11.07;;;;;;;19.97;58.92;100419.88;6152082;23;20097;-75
2022/09/24 01:42:30;;;;;;;12.15;11.35;;;;;;;19.98;58.99;100421.53;6152700;23;20021;-75
2022/09/24 01:45:00;;;;;;;11.32;10.60;;;;;;;19.85;58.99;100414.13;6152149;23;20021;-76
2022/09/24 01:47:33;;;;;;;;;;;;;;;19.75;59.47;100428.72;6153558;23;20382;-77
2022/09/24 01:50:01;;;;;;;12.00;11.02;;;;;;;19.63;59.44;100399.16;6151453;23;19994;-78
2022/09/24 01:52:38;;;;;;;11.43;10.55;;;;;;;19.69;59.64;100413.91;6151647;23;20026;-77
2022/09/24 01:55:10;;;;;;;11.40;10.60;;;;;;;19.70;59.76;100431.78;6151708;23;20025;-78
2022/09/24 01:57:48;;;;;;;11.98;11.18;;;;;;;19.64;59.85;100429.13;6150752;23;20032;-76
2022/09/24 02:00:20;;;;;;;11.77;10.70;;;;;;;19.52;59.71;100412.03;6152330;23;20029;-78
2022/09/24 02:03:10;;;;;;;11.23;10.30;;;;;;;19.55;59.77;100424.66;6152974;23;20022;-80
2022/09/24 02:05:57;;;;;;;12.07;9.63;;;;;;;19.23;59.77;100380.94;6151727;23;20356;-80
2022/09/24 02:08:33;;;;;;;11.18;10.43;;;;;;;19.28;59.82;100372.22;6152234;23;20022;-80
2022/09/24 02:11:00;;;;;;;11.95;10.88;;;;;;;19.34;60.32;100385.00;6152106;23;20025;-77
2022/09/24 02:13:31;;;;;;;10.48;9.77;;;;;;;19.30;60.25;100384.03;6152810;23;20025;-77
2022/09/24 02:16:03;;;;;;;11.63;10.73;;;;;;;19.30;60.44;100387.69;6152126;23;20468;-73
2022/09/24 02:18:35;;;;;;;11.07;10.18;;;;;;;19.19;60.62;100389.28;6152094;23;20036;-73
2022/09/24 02:21:06;;;;;;;11.95;11.13;;;;;;;19.21;60.37;100392.56;6150637;23;20025;-73
2022/09/24 02:23:38;;;;;;;12.27;11.23;;;;;;;19.13;60.60;100374.47;6153318;23;20032;-73
2022/09/24 02:26:05;;;;;;;11.80;10.90;;;;;;;19.30;60.31;100398.19;6153601;23;20045;-72
2022/09/24 02:28:33;;;;;;;12.98;11.55;;;;;;;19.22;60.26;100393.44;6152595;23;20032;-82
2022/09/24 02:31:05;;;;;;;12.32;10.80;;;;;;;19.21;60.50;100405.91;6152541;23;20033;-81
2022/09/24 02:36:23;;;;;;;12.50;11.40;;;;;;;19.05;60.47;100388.72;6153372;23;20021;-81
2022/09/24 02:38:51;;;;;;;11.80;10.90;;;;;;;19.13;60.98;100397.13;6154479;23;20025;-82
2022/09/24 02:41:22;;;;;;;13.32;11.98;;;;;;;18.90;60.77;100376.78;6157595;23;20504;-83
2022/09/24 02:43:50;;;;;;;12.55;11.35;;;;;;;18.92;60.59;100376.44;6161854;23;20429;-82
2022/09/24 02:46:17;;;;;;;12.50;11.60;;;;;;;19.05;60.87;100392.34;6166341;23;20028;-83
2022/09/24 02:48:44;;;;;;;16.48;12.00;;;;;;;18.85;61.04;100368.50;6170820;23;20029;-86
2022/09/24 02:51:11;;;;;;;12.85;11.85;;;;;;;18.88;61.08;100381.97;6162344;23;20037;-86
2022/09/24 02:53:38;;;;;;;13.40;12.35;;;;;;;18.89;60.93;100377.13;6157031;23;20026;-86
2022/09/24 02:56:06;;;;;;;14.13;12.70;;;;;;;18.95;61.35;100389.91;6156394;23;20018;-82
2022/09/24 02:58:36;;;;;;;12.63;11.60;;;;;;;18.96;61.20;100385.09;6155678;23;20036;-84
2022/09/24 03:01:04;;;;;;;13.93;12.77;;;;;;;18.94;61.43;100391.09;6131858;23;20032;-81
2022/09/24 03:03:31;;;;;;;12.90;11.75;;;;;;;18.92;61.19;100384.94;6157493;23;20043;-74
2022/09/24 03:05:58;;;;;;;12.52;11.52;;;;;;;18.85;61.23;100376.16;6157384;23;20017;-77
2022/09/24 03:08:25;;;;;;;12.80;11.60;;;;;;;18.96;61.42;100402.06;6157198;23;20037;-77
2022/09/24 03:10:54;;;;;;;13.60;12.30;;;;;;;18.73;61.58;100353.41;6157097;23;20334;-77
2022/09/24 03:13:22;;;;;;;13.57;12.57;;;;;;;18.99;61.80;100379.56;6156813;23;20057;-77
2022/09/24 03:15:49;;;;;;;12.98;11.98;;;;;;;18.92;61.60;100373.63;6156503;23;20251;-77
2022/09/24 03:18:16;;;;;;;12.45;11.35;;;;;;;18.84;61.86;100352.69;6131430;23;20049;-77
2022/09/24 03:20:42;;;;;;;13.20;11.90;;;;;;;18.96;61.70;100368.94;6156453;23;20029;-76
2022/09/24 03:23:09;;;;;;;12.73;11.82;;;;;;;18.91;61.65;100360.66;6155288;23;20026;-76
2022/09/24 03:25:36;;;;;;;13.13;12.07;;;;;;;19.00;61.60;100369.91;6153296;23;20026;-75
2022/09/24 03:28:03;;;;;;;13.70;12.52;;;;;;;19.02;61.28;100384.53;6153342;23;20021;-74
2022/09/24 03:33:15;;;;;;;12.50;11.40;;;;;;;18.85;61.83;100373.31;6155206;23;20033;-76
2022/09/24 03:35:42;;;;;;;12.52;11.48;;;;;;;18.89;61.56;100379.97;6153366;23;20032;-75
2022/09/24 03:38:09;;;;;;;12.80;11.63;;;;;;;18.73;61.67;100347.75;6154301;23;20667;-75
2022/09/24 03:40:36;;;;;;;12.10;11.30;;;;;;;18.63;61.78;100338.47;6154307;23;20025;-75
2022/09/24 03:43:03;;;;;;;12.30;11.40;;;;;;;18.79;61.47;100361.38;6153993;23;20033;-75
2022/09/24 03:45:29;;;;;;;12.45;11.45;;;;;;;18.86;61.02;100369.31;6153652;23;20022;-77
2022/09/24 03:47:56;;;;;;;11.85;11.15;;;;;;;18.88;61.24;100372.66;6154208;23;20022;-77
2022/09/24 03:50:23;;;;;;;13.43;12.40;;;;;;;18.82;61.21;100374.00;6153083;23;20456;-78
2022/09/24 03:52:50;;;;;;;14.32;13.23;;;;;;;18.70;61.78;100355.72;6154281;23;20036;-80
2022/09/24 03:55:17;;;;;;;12.48;11.48;;;;;;;18.59;61.96;100314.84;6153613;23;20391;-80
2022/09/24 03:57:43;;;;;;;13.95;12.65;;;;;;;19.05;61.99;100371.72;6153517;23;20018;-79
2022/09/24 04:00:10;;;;;;;12.27;11.27;;;;;;;19.39;61.49;100387.66;6151935;23;20348;-78
2022/09/24 04:02:39;;;;;;;12.57;11.48;;;;;;;19.53;61.05;100385.38;6153990;23;20550;-77
2022/09/24 04:05:06;;;;;;;12.13;11.23;;;;;;;19.32;60.57;100378.88;6153529;23;20033;-77
2022/09/24 04:07:33;;;;;;;12.15;11.25;;;;;;;19.30;60.50;100379.19;6153802;23;20025;-77
2022/09/24 04:10:00;;;;;;;13.40;12.07;;;;;;;19.22;60.47;100360.28;6154187;23;20318;-81
2022/09/24 04:12:27;;;;;;;12.80;11.90;;;;;;;19.33;60.46;100377.69;6152824;23;20025;-82
2022/09/24 04:14:54;;;;;;;11.95;11.05;;;;;;;19.20;59.67;100376.78;6153834;23;20021;-82
2022/09/24 04:17:21;;;;;;;12.75;11.45;;;;;;;18.98;60.03;100354.47;6152254;23;20520;-82
2022/09/24 04:19:50;;;;;;;11.75;10.85;;;;;;;19.04;60.26;100378.53;6153484;23;20030;-75
2022/09/24 04:22:17;;;;;;;13.05;11.95;;;;;;;19.07;60.85;100375.84;6154945;23;20022;-81
2022/09/24 04:24:44;;;;;;;12.57;11.48;;;;;;;19.36;60.92;100377.00;6155116;23;20044;-80
2022/09/24 04:27:10;;;;;;;11.77;10.93;;;;;;;19.06;60.59;100294.94;6153499;23;20021;-79
2022/09/24 04:29:37;;;;;;;11.50;10.60;;;;;;;19.61;60.32;100370.28;6177563;23;20041;-82
2022/09/24 04:32:04;;;;;;;12.07;11.07;;;;;;;19.51;60.00;100355.72;6154741;23;20357;-81
2022/09/24 04:34:32;;;;;;;11.75;11.02;;;;;;;19.51;59.73;100379.22;6154550;23;20022;-81
2022/09/24 04:36:59;;;;;;;12.98;12.00;;;;;;;19.45;60.02;100376.94;6154193;23;20092;-81
2022/09/24 04:39:26;;;;;;;12.27;11.40;;;;;;;19.51;59.84;100367.88;6155173;23;20032;-83
2022/09/24 04:41:53;;;;;;;12.85;11.95;;;;;;;19.57;59.54;100354.34;6152996;23;20028;-83
2022/09/24 04:44:21;;;;;;;12.73;11.82;;;;;;;19.79;59.56;100376.66;6153712;23;20021;-84
2022/09/24 04:46:48;;;;;;;12.50;11.63;;;;;;;20.04;59.19;100388.97;6152703;23;20041;-84
2022/09/24 04:49:15;;;;;;;12.38;11.48;;;;;;;20.07;58.74;100379.75;6153842;23;20029;-83
2022/09/24 04:51:42;;;;;;;13.15;12.15;;;;;;;19.99;58.46;100374.97;6153735;23;20025;-82
2022/09/24 04:54:09;;;;;;;11.40;10.60;;;;;;;20.01;58.27;100366.97;6154297;23;20473;-79
2022/09/24 04:56:36;;;;;;;10.68;9.93;;;;;;;20.08;58.34;100386.25;6153992;23;20028;-79
2022/09/24 04:59:03;;;;;;;11.50;10.70;;;;;;;20.07;58.48;100368.41;6151852;23;20029;-78
2022/09/24 05:01:30;;;;;;;10.93;10.13;;;;;;;20.33;57.90;100382.31;6153205;23;20021;-78
2022/09/24 05:03:57;;;;;;;11.10;10.20;;;;;;;20.31;57.58;100393.19;6152410;23;20096;-79
2022/09/24 05:06:24;;;;;;;10.80;10.00;;;;;;;20.25;57.50;100390.91;6177307;23;20017;-80
2022/09/24 05:08:51;;;;;;;11.50;10.75;;;;;;;20.21;57.75;100367.28;6177164;23;20418;-79
2022/09/24 05:11:18;;;;;;;10.32;9.73;;;;;;;20.67;57.77;100396.47;6151682;23;20029;-82
2022/09/24 05:13:45;;;;;;;11.10;10.45;;;;;;;20.85;56.89;100352.47;6152643;23;20487;-81
2022/09/24 05:16:12;;;;;;;9.43;8.82;;;;;;;21.14;56.65;100382.66;6154786;23;20469;-81
2022/09/24 05:18:39;;;;;;;10.82;10.02;;;;;;;20.89;55.94;100356.28;6156555;23;20077;-78
2022/09/24 05:21:06;;;;;;;9.80;9.10;;;;;;;20.93;55.72;100410.34;6154823;23;20021;-82
2022/09/24 05:23:33;;;;;;;10.57;9.88;;;;;;;20.59;56.30;100404.72;6156145;23;20131;-83
2022/09/24 05:28:46;;;;;;;11.52;10.30;;;;;;;20.39;56.57;100402.75;6155813;23;20025;-80
2022/09/24 05:31:12;;;;;;;11.25;10.27;;;;;;;20.39;56.19;100390.59;6157071;23;20356;-89
2022/09/24 05:33:39;;;;;;;10.20;9.50;;;;;;;20.22;56.48;100391.63;6160254;23;20026;-90
2022/09/24 05:36:06;;;;;;;10.43;9.82;;;;;;;20.26;56.88;100392.56;6161159;23;20025;-83
2022/09/24 05:38:33;;;;;;;10.77;10.05;;;;;;;20.19;56.25;100366.78;6156225;23;20051;-86
2022/09/24 05:41:00;;;;;;;9.95;9.30;;;;;;;20.51;56.19;100400.00;6156539;23;20445;-73
2022/09/24 05:43:27;;;;;;;11.32;10.48;;;;;;;20.77;55.98;100416.69;6155353;23;20080;-73
2022/09/24 05:45:55;;;;;;;9.40;8.77;;;;;;;20.69;55.34;100413.97;6178456;23;20021;-74
2022/09/24 05:48:22;;;;;;;10.80;9.80;;;;;;;20.30;55.72;100427.53;6155669;23;20314;-73
2022/09/24 05:50:54;;;;;;;10.68;9.98;;;;;;;20.03;55.84;100409.97;6154953;23;20032;-73
2022/09/24 05:53:22;;;;;;;10.95;10.15;;;;;;;19.62;55.92;100369.16;6154711;23;20079;-77
2022/09/24 05:55:48;;;;;;;11.07;10.27;;;;;;;19.85;55.87;100422.63;6153118;23;20468;-75
2022/09/24 05:58:16;;;;;;;10.52;9.93;;;;;;;19.53;56.43;100359.88;6154793;23;20025;-74
2022/09/24 06:00:46;;;;;;;10.88;10.13;;;;;;;19.80;56.18;100414.34;6178589;23;20025;-74
2022/09/24 06:03:15;;;;;;;11.30;10.60;;;;;;;19.51;56.02;100396.19;6155045;23;20029;-74
2022/09/24 06:05:47;;;;;;;10.43;9.82;;;;;;;19.50;56.41;100434.22;6155134;23;20030;-74
2022/09/24 06:08:15;;;;;;;10.43;9.52;;;;;;;19.17;56.24;100406.59;6155653;23;20028;-80
2022/09/24 06:10:47;;;;;;;11.07;10.10;;;;;;;19.22;56.80;100445.22;6153863;23;20491;-72
2022/09/24 06:13:18;;;;;;;10.77;9.98;;;;;;;19.04;56.74;100438.81;6154309;23;20502;-75
2022/09/24 06:15:45;;;;;;;10.30;9.60;;;;;;;18.56;56.89;100391.88;6152701;23;20097;-79
2022/09/24 06:18:12;;;;;;;10.02;9.32;;;;;;;18.67;57.73;100429.13;6153060;23;20021;-80
2022/09/24 06:20:39;;;;;;;10.80;10.10;;;;;;;18.69;57.80;100450.22;6154102;23;20033;-80
2022/09/24 06:23:06;;;;;;;10.65;10.05;;;;;;;18.44;57.80;100432.19;6154817;23;20033;-81
2022/09/24 06:25:33;;;;;;;11.30;10.30;;;;;;;18.32;58.16;100428.38;6156332;23;20473;-81
2022/09/24 06:28:02;;;;;;;11.40;10.50;;;;;;;18.44;58.32;100460.44;6155960;23;20017;-81
2022/09/24 06:30:35;;;;;;;11.02;10.32;;;;;;;18.24;58.33;100430.88;6156471;23;20021;-81
2022/09/24 06:33:04;;;;;;;10.68;10.00;;;;;;;18.34;58.47;100460.81;6154815;23;20026;-80
2022/09/24 06:35:36;;;;;;;10.75;10.15;;;;;;;18.29;58.32;100466.66;6156579;23;20029;-80
2022/09/24 06:38:05;;;;;;;13.73;12.93;;;;;;;18.14;58.40;100445.34;6157407;23;20021;-80
2022/09/24 06:40:32;;;;;;;11.38;10.57;;;;;;;18.22;58.68;100461.50;6156540;23;20025;-80
2022/09/24 06:43:09;;;;;;;11.60;10.80;;;;;;;18.31;58.69;100472.78;6157290;23;20080;-80
2022/09/24 06:45:36;;;;;;;10.82;10.23;;;;;;;18.31;58.63;100484.09;6156796;23;20082;-80
2022/09/24 06:48:04;;;;;;;11.15;10.40;;;;;;;18.27;58.99;100476.63;6155992;23;20018;-80
2022/09/24 06:50:33;;;;;;;11.80;10.18;;;;;;;18.24;58.75;100478.94;6156752;23;20025;-80
2022/09/24 06:53:04;;;;;;;10.75;9.95;;;;;;;18.14;59.11;100462.31;6156557;23;20021;-79
2022/09/24 06:55:31;;;;;;;11.02;10.23;;;;;;;18.24;59.06;100483.75;6157478;23;20404;-78
2022/09/24 06:58:04;;;;;;;10.80;9.82;;;;;;;18.11;58.84;100453.69;6157509;23;20029;-80
2022/09/24 07:00:32;;;;;;;10.88;10.18;;;;;;;18.36;59.08;100491.56;6155098;23;20029;-82
2022/09/24 07:02:58;;;;;;;14.05;13.30;;;;;;;18.31;59.17;100486.09;6154499;23;20025;-78
2022/09/24 07:05:25;;;;;;;12.57;11.63;;;;;;;18.22;59.35;100471.94;6155382;23;20025;-79
2022/09/24 07:07:52;;;;;;;10.60;9.80;;;;;;;18.47;59.11;100495.72;6155656;23;20029;-81
2022/09/24 07:10:19;;;;;;;10.73;9.77;;;;;;;18.54;59.23;100492.38;6155957;23;20025;-82
2022/09/24 07:12:46;;;;;;;11.00;10.30;;;;;;;18.65;59.11;100500.16;6153932;23;20041;-80
2022/09/24 07:15:13;;;;;;;10.73;8.80;;;;;;;18.70;58.88;100473.72;6155101;23;20029;-79
2022/09/24 07:17:40;;;;;;;11.40;10.35;;;;;;;18.99;58.39;100470.13;6154034;23;20026;-79
2022/09/24 07:20:07;;;;;;;10.07;9.18;;;;;;;19.40;57.97;100474.25;6152187;23;20036;-76
2022/09/24 07:22:39;;;;;;;10.32;9.68;;;;;;;19.61;57.48;100479.94;6152995;23;20048;-81
2022/09/24 07:25:08;;;;;;;9.63;8.93;;;;;;;19.69;57.02;100449.94;6152592;23;20250;-82
2022/09/24 07:27:36;;;;;;;9.80;9.13;;;;;;;19.96;56.69;100463.53;6151710;23;20018;-81
2022/09/24 07:30:05;;;;;;;8.52;7.93;;;;;;;20.17;56.34;100457.03;6153283;23;20032;-81
2022/09/24 07:32:32;;;;;;;9.60;8.88;;;;;;;20.76;55.83;100499.34;6149223;23;20032;-81
2022/09/24 07:34:59;;;;;;;10.68;9.77;;;;;;;20.87;55.68;100509.06;6149026;23;20026;-81
2022/09/24 07:37:25;;;;;;;10.57;9.80;;;;;;;20.87;55.45;100485.53;6151719;23;20025;-80
2022/09/24 07:39:52;;;;;;;10.23;9.63;;;;;;;21.22;54.86;100498.13;6152074;23;20483;-80
2022/09/24 07:42:20;;;;;;;9.23;8.65;;;;;;;21.60;54.95;100502.63;6150788;23;20026;-80
2022/09/24 07:44:47;;;;;;;9.20;8.70;;;;;;;21.83;54.59;100487.94;6151076;23;20021;-81
2022/09/24 07:47:14;;;;;;;10.02;9.25;;;;;;;21.71;53.84;100440.47;6151511;23;20013;-83
2022/09/24 07:49:43;;;;;;;11.25;9.43;;;;;;;22.50;54.26;100516.81;6151792;23;20036;-82
2022/09/24 07:52:10;;;;;;;10.23;9.02;;;;;;;22.79;53.28;100519.25;6158736;23;20032;-81
2022/09/24 07:54:37;;;;;;;10.45;9.75;;;;;;;22.86;53.24;100510.91;6165056;23;20032;-82
2022/09/24 07:57:11;;;;;;;9.98;9.27;;;;;;;23.13;52.47;100519.78;6156149;23;20457;-78
2022/09/24 07:59:39;;;;;;;9.27;8.68;;;;;;;23.55;51.93;100534.28;6152814;23;20029;-75
2022/09/24 08:02:14;;;;;;;10.23;9.38;;;;;;;23.82;51.63;100514.59;6151563;23;20029;-75
2022/09/24 08:04:41;;;;;;;8.95;8.45;;;;;;;24.12;51.05;100507.16;6154267;23;20021;-76
2022/09/24 08:07:10;;;;;;;9.45;8.85;;;;;;;24.45;49.99;100542.16;6152280;23;20028;-76
2022/09/24 08:09:37;;;;;;;9.35;8.70;;;;;;;24.39;50.28;100532.19;6153804;23;20488;-77
2022/09/24 08:12:05;;;;;;;9.85;9.05;;;;;;;24.74;49.63;100541.50;6147342;23;20021;-78
2022/09/24 08:14:32;;;;;;;10.35;8.73;;;;;;;25.25;49.02;100534.75;6150471;23;20021;-78
2022/09/24 08:17:00;;;;;;;15.70;9.18;;;;;;;25.43;48.25;100529.34;6150677;23;20029;-78
2022/09/24 08:19:29;;;;;;;8.60;8.10;;;;;;;25.91;48.27;100532.59;6150107;23;20025;-76
2022/09/24 08:21:57;;;;;;;12.70;10.35;;;;;;;26.30;47.54;100544.63;6152939;23;20026;-77
2022/09/24 08:24:24;;;;;;;9.35;8.57;;;;;;;26.62;46.58;100545.06;6151793;23;20025;-78
2022/09/24 08:26:51;;;;;;;9.02;8.45;;;;;;;26.99;45.90;100552.84;6154202;23;20092;-77
2022/09/24 08:29:18;;;;;;;9.13;8.52;;;;;;;27.20;45.00;100537.94;6153276;23;20468;-77
2022/09/24 08:31:45;;;;;;;11.55;10.70;;;;;;;27.45;44.68;100526.69;6177114;23;20021;-77
2022/09/24 08:34:12;;;;;;;9.50;8.90;;;;;;;27.95;43.97;100547.22;6153566;23;20279;-78
2022/09/24 08:36:38;;;;;;;10.00;9.27;;;;;;;28.26;43.08;100544.94;6153599;23;20032;-78
2022/09/24 08:39:09;;;;;;;9.35;8.55;;;;;;;28.81;43.11;100560.00;6175755;23;20028;-78
2022/09/24 08:42:00;;;;;;;8.73;8.13;;;;;;;29.15;42.59;100556.03;6152852;23;20072;-77
2022/09/24 08:47:56;;;;;;;8.48;7.97;;;;;;;29.57;41.37;100540.84;6151676;23;20022;-77
2022/09/24 08:50:29;;;;;;;9.02;8.32;;;;;;;29.69;40.27;100531.84;6153242;23;20032;-77
2022/09/24 08:53:30;;;;;;;8.85;8.30;;;;;;;29.98;40.80;100570.06;6154232;23;20021;-78
2022/09/24 08:55:59;;;;;;;8.90;8.30;;;;;;;30.33;39.54;100553.97;6153135;23;20096;-77
2022/09/24 08:58:59;;;;;;;9.65;9.05;;;;;;;30.51;39.40;100553.91;6154224;23;20032;-78
2022/09/24 09:01:32;;;;;;;9.50;8.68;;;;;;;30.77;38.79;100554.66;6143448;23;20037;-77
2022/09/24 09:04:04;;;;;;;9.70;9.02;;;;;;;31.07;37.85;100569.31;6152829;23;20476;-77
2022/09/24 09:07:00;;;;;;;8.85;8.35;;;;;;;31.14;37.94;100574.22;6155162;23;20088;-78
2022/09/24 09:09:52;;;;;;;9.05;8.38;;;;;;;31.21;37.81;100571.28;6154853;23;20029;-77
2022/09/24 09:12:30;;;;;;;9.00;8.38;;;;;;;31.28;37.64;100577.03;6151364;23;20074;-78
2022/09/24 09:15:16;;;;;;;9.98;9.07;;;;;;;31.26;37.28;100565.09;6152574;23;20037;-80
2022/09/24 09:17:49;;;;;;;10.45;9.57;;;;;;;31.39;36.73;100582.75;6151477;23;20018;-79
2022/09/24 09:20:28;;;;;;;8.55;8.05;;;;;;;31.48;36.75;100585.97;6176521;23;20026;-79
2022/09/24 09:23:00;;;;;;;8.23;7.72;;;;;;;31.39;35.86;100560.50;6153749;23;20468;-78
2022/09/24 09:25:32;;;;;;;9.10;8.38;;;;;;;31.71;36.12;100581.69;6153775;23;20025;-77
2022/09/24 09:28:13;;;;;;;8.45;7.95;;;;;;;31.90;35.54;100566.72;6153548;23;20457;-81
2022/09/24 09:30:55;;;;;;;10.52;9.68;;;;;;;32.14;35.41;100579.25;6153359;23;20096;-78
2022/09/24 09:33:25;;;;;;;9.43;8.57;;;;;;;32.10;34.79;100575.56;6149837;23;20029;-77
2022/09/24 09:35:57;;;;;;;8.63;8.13;;;;;;;31.93;34.28;100567.91;6149902;23;20036;-78
2022/09/24 09:38:29;;;;;;;8.57;8.07;;;;;;;31.83;34.28;100553.13;6150610;23;20476;-77
2022/09/24 09:40:55;;;;;;;9.10;8.50;;;;;;;32.01;34.09;100590.53;6151464;23;20044;-77
2022/09/24 09:43:24;;;;;;;10.65;10.05;;;;;;;32.03;33.53;100575.63;6154014;23;20080;-77
2022/09/24 09:46:08;;;;;;;9.55;8.82;;;;;;;32.14;33.90;100572.63;6153193;23;20021;-78
2022/09/24 09:48:44;;;;;;;8.68;8.18;;;;;;;32.39;33.53;100563.72;6153696;23;20033;-76
2022/09/24 09:51:24;;;;;;;11.05;10.45;;;;;;;32.61;33.05;100573.78;6154490;23;20475;-77
2022/09/24 09:53:59;;;;;;;9.45;8.95;;;;;;;32.57;32.77;100575.91;6156364;23;20036;-77
2022/09/24 09:56:40;;;;;;;8.85;8.05;;;;;;;32.51;32.64;100554.50;6152469;23;20492;-78
2022/09/24 09:59:10;;;;;;;13.77;13.05;;;;;;;32.63;32.72;100567.59;6153052;23;20029;-78
2022/09/24 10:01:44;;;;;;;10.70;10.18;;;;;;;32.53;32.33;100566.47;6153904;23;20037;-77
2022/09/24 10:04:32;;;;;;;9.68;9.10;;;;;;;32.53;32.62;100570.19;6154191;23;20404;-78
2022/09/24 10:07:16;;;;;;;10.15;9.50;;;;;;;32.58;32.59;100560.19;6154600;23;20113;-78
2022/09/24 10:09:45;;;;;;;9.82;8.95;;;;;;;32.55;31.93;100556.13;6152910;23;20125;-77
2022/09/24 10:12:16;;;;;;;9.52;9.02;;;;;;;32.14;31.50;100518.59;6153822;23;20025;-78
2022/09/24 10:14:54;;;;;;;10.85;10.05;;;;;;;32.47;31.57;100554.56;6155909;23;20021;-77
2022/09/24 10:17:26;;;;;;;9.75;9.25;;;;;;;32.29;31.43;100528.72;6155145;23;20357;-77
2022/09/24 10:19:54;;;;;;;9.48;8.77;;;;;;;32.13;31.04;100528.50;6155411;23;20022;-77
2022/09/24 10:22:25;;;;;;;9.98;9.05;;;;;;;32.29;31.78;100546.06;6155137;23;20033;-77
2022/09/24 10:24:54;;;;;;;8.90;8.45;;;;;;;32.34;31.26;100541.88;6155807;23;20025;-77
2022/09/24 10:27:32;;;;;;;9.50;9.05;;;;;;;32.33;31.20;100535.28;6155403;23;20017;-77
2022/09/24 10:32:55;;;;;;;9.50;9.00;;;;;;;32.24;30.90;100517.66;6155654;23;20030;-78
2022/09/24 10:35:25;;;;;;;9.25;8.75;;;;;;;32.58;30.77;100545.75;6155463;23;20022;-77
2022/09/24 10:37:55;;;;;;;10.13;9.43;;;;;;;32.50;30.35;100512.41;6155451;23;20025;-78
2022/09/24 10:40:27;;;;;;;9.27;8.77;;;;;;;32.31;31.31;100506.00;6154632;23;20453;-78
2022/09/24 10:42:59;;;;;;;10.27;9.50;;;;;;;32.24;30.97;100517.66;6154183;23;20060;-78
2022/09/24 10:45:47;;;;;;;8.95;8.38;;;;;;;32.12;31.00;100526.84;6153264;23;20482;-78
2022/09/24 10:48:25;;;;;;;9.25;8.70;;;;;;;32.12;31.59;100515.31;6154500;23;20018;-77
2022/09/24 10:51:22;;;;;;;9.37;8.77;;;;;;;32.17;31.45;100529.28;6152675;23;20416;-78
2022/09/24 10:54:31;;;;;;;8.98;8.45;;;;;;;32.26;31.88;100512.25;6153134;23;20053;-77
2022/09/24 10:57:02;;;;;;;8.75;8.10;;;;;;;32.05;31.23;100498.06;6143698;23;20378;-79
2022/09/24 10:59:57;;;;;;;8.48;7.97;;;;;;;32.11;30.94;100489.75;6153492;23;20453;-77
2022/09/24 11:02:58;;;;;;;9.30;8.80;;;;;;;32.44;30.95;100525.69;6153168;23;20022;-77
2022/09/24 11:05:34;;;;;;;9.43;8.82;;;;;;;32.60;30.85;100517.22;6155235;23;20066;-78
2022/09/24 11:08:27;;;;;;;9.00;8.45;;;;;;;32.53;31.01;100511.53;6155113;23;20024;-78
2022/09/24 11:11:30;;;;;;;9.52;8.93;;;;;;;32.69;30.73;100510.94;6157128;23;20025;-77
2022/09/24 11:14:21;;;;;;;9.80;9.18;;;;;;;32.74;31.03;100508.34;6157170;23;20017;-78
2022/09/24 11:17:07;;;;;;;9.23;8.68;;;;;;;32.88;30.25;100516.00;6156648;23;20025;-77
2022/09/24 11:19:36;;;;;;;9.10;8.60;;;;;;;33.04;29.61;100495.16;6156611;23;20022;-77
2022/09/24 11:22:18;;;;;;;8.52;7.70;;;;;;;32.96;29.72;100482.06;6155561;23;20026;-77
2022/09/24 11:24:57;;;;;;;9.55;9.02;;;;;;;32.98;29.77;100486.16;6157252;23;20025;-78
2022/09/24 11:27:49;;;;;;;9.80;8.93;;;;;;;32.71;29.91;100482.38;6157143;23;20022;-77
2022/09/24 11:30:34;;;;;;;12.82;12.13;;;;;;;32.88;29.97;100492.06;6157088;23;20043;-78
2022/09/24 11:33:28;;;;;;;11.13;10.52;;;;;;;33.25;28.74;100491.91;6155590;23;20025;-77
2022/09/24 11:36:22;;;;;;;13.18;12.57;;;;;;;33.46;28.95;100487.84;6152959;23;20021;-77
2022/09/24 11:39:27;;;;;;;9.50;8.90;;;;;;;33.68;28.53;100476.75;6156591;23;20018;-77
2022/09/24 11:42:20;;;;;;;10.65;10.02;;;;;;;33.90;27.83;100482.13;6154580;23;20026;-77
2022/09/24 11:45:16;;;;;;;10.32;9.82;;;;;;;34.31;26.70;100469.34;6156728;23;20036;-77
2022/09/24 11:47:58;;;;;;;9.57;8.98;;;;;;;34.77;26.28;100473.31;6142612;23;20036;-77
2022/09/24 11:50:34;;;;;;;10.82;10.07;;;;;;;35.11;26.34;100455.53;6154769;23;20025;-77
2022/09/24 11:53:01;;;;;;;9.70;9.20;;;;;;;35.22;25.66;100475.63;6152477;23;20064;-76
2022/09/24 11:55:36;;;;;;;10.57;9.98;;;;;;;35.46;24.75;100468.34;6154258;23;20025;-77